Arlington, Minnesota
Current Conditions -  °F | °C
As of 7:34 PM on Saturday 25 Oct 2014 (Local Time) from KGYL Reporting Station
Clear Clear  
Wind Chill: 10°   Ceiling: Unl
Heat Index: 10°   Visibility: 10mi
Dew Point: -2°   Wind: 6mph
Humidity: 43%   Direction: 280°W
Pressure: 30.06"   Gusts: NA
Location:  44.61°N, 94.08°W
Report Text: KGYL 260034Z AUTO 28005KT 10SM CLR 10/M02 A3006 RMK AO2 T01021019
Loading
Personal Weather Stations






























Interactive Weather Map
Tropical Storm Tracking
New forecast layout! Learn more

10-Day Weather Forecast

Advertisements
Track Severe Weather on mobile